Time;durP1;ratioP1;P1;durP2;ratioP2;P2;SDS_P1;SDS_P2;PMS_P1;PMS_P2;Temp;Humidity;BMP_temperature;BMP_pressure;BME280_temperature;BME280_humidity;BME280_pressure;Samples;Min_cycle;Max_cycle;Signal;HPM_P1;HPM_P2
2023/05/19 00:00:27;;;;;;;23.48;4.57;;;35.40;34.70;;;;;;5055381;28;20049;-61
2023/05/19 00:02:54;;;;;;;37.97;4.30;;;35.50;34.70;;;;;;5054636;28;20017;-60
2023/05/19 00:05:21;;;;;;;33.85;4.72;;;35.50;35.40;;;;;;5052636;28;20459;-61
2023/05/19 00:07:51;;;;;;;21.17;4.28;;;35.50;35.40;;;;;;5054755;28;20025;-60
2023/05/19 00:10:18;;;;;;;28.38;4.38;;;35.50;35.80;;;;;;5058672;28;20049;-60
2023/05/19 00:12:44;;;;;;;36.95;4.93;;;35.50;36.20;;;;;;5050628;28;20028;-61
2023/05/19 00:15:12;;;;;;;26.60;4.45;;;35.30;35.80;;;;;;5055793;28;20082;-61
2023/05/19 00:17:41;;;;;;;51.80;11.45;;;35.30;36.20;;;;;;5049334;28;20137;-60
2023/05/19 00:20:08;;;;;;;42.33;10.95;;;35.30;36.00;;;;;;5052534;28;20100;-60
2023/05/19 00:22:35;;;;;;;27.33;4.18;;;35.30;35.90;;;;;;5055310;28;20370;-62
2023/05/19 00:25:02;;;;;;;20.02;4.15;;;35.30;36.30;;;;;;5053891;28;20040;-61
2023/05/19 00:27:29;;;;;;;21.25;3.83;;;35.20;35.90;;;;;;5051805;28;20493;-62
2023/05/19 00:29:55;;;;;;;15.80;3.70;;;35.10;36.10;;;;;;5053443;28;20027;-60
2023/05/19 00:32:21;;;;;;;35.78;4.93;;;35.00;36.40;;;;;;5052107;28;20017;-60
2023/05/19 00:34:48;;;;;;;24.52;4.40;;;34.90;36.60;;;;;;5054880;28;20017;-62
2023/05/19 00:37:14;;;;;;;30.02;4.15;;;34.80;36.50;;;;;;5051149;28;20104;-61
2023/05/19 00:39:41;;;;;;;22.95;4.38;;;34.80;36.60;;;;;;5059038;28;20086;-60
2023/05/19 00:42:07;;;;;;;39.63;5.55;;;34.80;37.00;;;;;;5057865;28;20477;-60
2023/05/19 00:44:38;;;;;;;27.02;4.53;;;34.80;37.20;;;;;;5051308;28;20036;-62
2023/05/19 00:47:05;;;;;;;24.45;4.22;;;34.60;37.20;;;;;;5054105;28;20029;-60
2023/05/19 00:49:31;;;;;;;22.63;4.38;;;34.50;37.70;;;;;;5052286;28;20032;-61
2023/05/19 00:51:58;;;;;;;28.52;5.18;;;34.40;38.00;;;;;;5053285;28;20029;-60
2023/05/19 00:54:28;;;;;;;47.00;5.90;;;34.40;38.40;;;;;;5052763;28;20029;-61
2023/05/19 00:56:57;;;;;;;34.08;5.50;;;34.40;38.80;;;;;;5052405;28;20038;-58
2023/05/19 00:59:23;;;;;;;31.73;4.82;;;34.30;39.60;;;;;;5050747;28;20025;-61
2023/05/19 01:01:50;;;;;;;26.25;4.15;;;34.30;39.70;;;;;;5050516;28;20025;-60
2023/05/19 01:04:19;;;;;;;34.40;4.13;;;34.20;39.50;;;;;;5050553;28;20473;-59
2023/05/19 01:06:53;;;;;;;40.78;15.93;;;34.10;39.80;;;;;;5048217;28;20032;-61
2023/05/19 01:09:23;;;;;;;36.67;11.75;;;34.20;39.70;;;;;;5049848;28;20079;-61
2023/05/19 01:11:52;;;;;;;52.92;12.27;;;34.10;39.80;;;;;;5048848;28;20893;-60
2023/05/19 01:14:20;;;;;;;43.35;11.88;;;34.00;40.20;;;;;;5048539;28;20033;-60
2023/05/19 01:16:52;;;;;;;40.10;11.20;;;33.90;40.50;;;;;;5049101;28;20028;-62
2023/05/19 01:19:49;;;;;;;32.10;4.38;;;33.80;41.10;;;;;;5047898;28;20029;-62
2023/05/19 01:22:34;;;;;;;;;;;33.60;41.00;;;;;;5057798;28;20473;-58
2023/05/19 01:25:26;;;;;;;25.88;4.30;;;33.40;41.00;;;;;;5050891;28;19909;-60
2023/05/19 01:27:52;;;;;;;25.48;4.40;;;33.30;41.40;;;;;;5031924;28;20570;-59
2023/05/19 01:30:44;;;;;;;18.23;4.10;;;33.20;41.20;;;;;;5048681;28;20548;-60
2023/05/19 01:33:15;;;;;;;23.52;3.72;;;33.00;40.60;;;;;;5050309;28;20031;-60
2023/05/19 01:35:43;;;;;;;25.60;5.22;;;32.80;40.60;;;;;;5052109;28;20058;-59
2023/05/19 01:38:10;;;;;;;26.60;4.15;;;32.80;40.80;;;;;;5051332;28;20111;-59
2023/05/19 01:40:38;;;;;;;26.83;5.05;;;32.70;41.20;;;;;;5049916;28;20043;-58
2023/05/19 01:43:07;;;;;;;26.23;4.70;;;32.60;41.30;;;;;;5049224;28;20063;-56
2023/05/19 01:45:34;;;;;;;29.35;4.60;;;32.50;41.60;;;;;;5049332;28;20838;-56
2023/05/19 01:48:03;;;;;;;23.58;4.90;;;32.40;41.50;;;;;;5048662;28;20060;-61
2023/05/19 01:50:30;;;;;;;24.17;4.82;;;32.40;41.30;;;;;;5058194;28;20038;-59
2023/05/19 01:52:56;;;;;;;23.77;4.40;;;32.30;41.00;;;;;;5052359;28;20025;-59
2023/05/19 01:55:23;;;;;;;20.98;4.35;;;32.30;41.30;;;;;;5058289;28;20045;-60
2023/05/19 01:58:20;;;;;;;21.50;4.32;;;32.40;41.00;;;;;;5054083;28;20456;-60
2023/05/19 02:00:58;;;;;;;23.30;4.60;;;32.60;40.90;;;;;;5049066;28;20491;-59
2023/05/19 02:03:42;;;;;;;38.35;5.20;;;32.40;41.50;;;;;;5051130;28;20051;-60
2023/05/19 02:06:38;;;;;;;23.60;4.90;;;32.30;42.00;;;;;;5048087;28;20299;-59
2023/05/19 02:09:13;;;;;;;22.67;4.80;;;32.10;42.50;;;;;;5051844;28;20498;-59
2023/05/19 02:11:45;;;;;;;30.83;5.20;;;31.90;42.70;;;;;;5054633;28;20089;-59
2023/05/19 02:14:28;;;;;;;110.47;7.85;;;31.70;42.80;;;;;;5053943;28;20098;-60
2023/05/19 02:16:57;;;;;;;29.08;4.82;;;31.60;43.10;;;;;;5054181;28;20054;-59
2023/05/19 02:19:30;;;;;;;33.58;6.07;;;31.50;43.30;;;;;;5047582;28;20090;-63
2023/05/19 02:21:57;;;;;;;32.65;4.25;;;31.40;43.60;;;;;;5048973;28;20071;-60
2023/05/19 02:24:24;;;;;;;22.08;4.03;;;31.30;43.80;;;;;;5050271;28;20091;-60
2023/05/19 02:26:51;;;;;;;25.80;4.72;;;31.30;44.00;;;;;;5049733;28;20114;-61
2023/05/19 02:29:21;;;;;;;24.70;6.18;;;31.20;44.20;;;;;;5049323;28;20049;-62
2023/05/19 02:31:47;;;;;;;29.17;4.70;;;31.10;44.50;;;;;;5049671;28;20436;-62
2023/05/19 02:34:14;;;;;;;22.95;4.78;;;31.00;44.70;;;;;;5049289;28;20127;-62
2023/05/19 02:36:44;;;;;;;21.02;4.72;;;31.00;45.00;;;;;;5048906;28;20124;-61
2023/05/19 02:39:11;;;;;;;27.98;4.57;;;30.90;45.40;;;;;;5047791;28;20068;-59
2023/05/19 02:41:38;;;;;;;27.83;4.93;;;30.80;45.60;;;;;;5047148;28;20144;-61
2023/05/19 02:44:05;;;;;;;30.50;4.72;;;30.70;45.80;;;;;;5047399;28;20057;-61
2023/05/19 02:46:31;;;;;;;23.58;4.40;;;30.70;46.00;;;;;;5047178;28;20084;-63
2023/05/19 02:48:57;;;;;;;25.98;4.80;;;30.60;46.10;;;;;;5047345;28;20130;-61
2023/05/19 02:51:24;;;;;;;29.35;4.88;;;30.50;46.10;;;;;;5046857;28;20435;-58
2023/05/19 02:53:50;;;;;;;22.38;4.38;;;30.50;46.30;;;;;;5047331;28;20038;-62
2023/05/19 02:56:16;;;;;;;49.15;5.10;;;30.40;46.50;;;;;;5046928;28;20085;-60
2023/05/19 02:58:43;;;;;;;39.35;5.45;;;30.30;46.90;;;;;;5046911;28;20519;-62
2023/05/19 03:01:09;;;;;;;33.55;5.18;;;30.30;47.40;;;;;;5045732;28;20086;-61
2023/05/19 03:03:36;;;;;;;26.20;4.88;;;30.20;48.10;;;;;;5047215;28;20083;-60
2023/05/19 03:06:02;;;;;;;32.58;5.45;;;30.20;48.70;;;;;;5047400;28;20041;-61
2023/05/19 03:08:29;;;;;;;29.15;4.97;;;30.10;49.10;;;;;;5050935;28;20565;-59
2023/05/19 03:10:55;;;;;;;30.77;4.72;;;30.10;49.60;;;;;;5047218;28;20061;-61
2023/05/19 03:13:21;;;;;;;73.10;7.40;;;30.00;50.00;;;;;;5050407;28;20403;-60
2023/05/19 03:15:49;;;;;;;24.05;5.07;;;29.90;50.40;;;;;;5048199;28;20048;-60
2023/05/19 03:18:16;;;;;;;27.25;4.70;;;29.90;50.80;;;;;;5050474;28;20455;-57
2023/05/19 03:20:43;;;;;;;23.58;4.63;;;29.80;51.10;;;;;;5049028;28;20073;-60
2023/05/19 03:23:10;;;;;;;29.05;5.32;;;29.70;51.40;;;;;;5047731;28;20522;-58
2023/05/19 03:25:36;;;;;;;28.13;5.25;;;29.70;51.60;;;;;;5053273;28;20048;-60
2023/05/19 03:28:03;;;;;;;24.88;5.25;;;29.60;51.60;;;;;;5047808;28;20101;-60
2023/05/19 03:30:29;;;;;;;21.75;4.53;;;29.60;51.60;;;;;;5060014;28;20062;-61
2023/05/19 03:32:55;;;;;;;21.48;4.45;;;29.40;50.90;;;;;;5050964;28;20055;-60
2023/05/19 03:35:22;;;;;;;35.80;4.22;;;29.40;49.90;;;;;;5054533;28;20243;-60
2023/05/19 03:37:48;;;;;;;31.25;4.80;;;29.40;49.40;;;;;;5049888;28;20065;-60
2023/05/19 03:40:15;;;;;;;40.70;5.05;;;29.30;48.50;;;;;;5051615;28;20093;-61
2023/05/19 03:42:41;;;;;;;27.60;5.07;;;29.30;48.60;;;;;;5051520;28;20121;-58
2023/05/19 03:45:08;;;;;;;35.72;5.45;;;29.20;48.10;;;;;;5053631;28;20044;-58
2023/05/19 03:47:34;;;;;;;23.70;4.60;;;29.20;47.80;;;;;;5052281;28;20060;-56
2023/05/19 03:50:01;;;;;;;25.65;4.20;;;29.10;47.80;;;;;;5052650;28;21018;-60
2023/05/19 03:52:27;;;;;;;31.60;4.18;;;29.10;48.00;;;;;;5054421;28;20045;-60
2023/05/19 03:54:53;;;;;;;22.13;4.15;;;29.00;48.30;;;;;;5055988;28;20134;-61
2023/05/19 03:57:20;;;;;;;23.85;4.63;;;29.00;48.10;;;;;;5053770;28;20072;-59
2023/05/19 03:59:46;;;;;;;29.33;5.57;;;28.90;48.30;;;;;;5050774;28;20529;-59
2023/05/19 04:02:13;;;;;;;27.63;6.45;;;28.80;48.50;;;;;;5049588;28;20071;-59
2023/05/19 04:04:39;;;;;;;25.35;6.13;;;28.80;49.00;;;;;;5053492;28;20083;-59
2023/05/19 04:07:06;;;;;;;25.23;5.07;;;28.70;49.70;;;;;;5052420;28;20061;-56
2023/05/19 04:09:34;;;;;;;30.05;4.28;;;28.60;50.50;;;;;;5050279;28;20051;-55
2023/05/19 04:12:03;;;;;;;32.03;4.72;;;28.60;51.20;;;;;;5052260;28;20054;-53
2023/05/19 04:14:30;;;;;;;22.85;4.30;;;28.50;51.80;;;;;;5056271;28;20485;-55
2023/05/19 04:16:57;;;;;;;22.05;4.28;;;28.50;52.40;;;;;;5051962;28;20130;-58
2023/05/19 04:19:23;;;;;;;26.17;5.03;;;28.50;52.90;;;;;;5050405;28;20123;-55
2023/05/19 04:21:49;;;;;;;14.35;3.85;;;28.40;53.00;;;;;;5050394;28;20051;-56
2023/05/19 04:24:16;;;;;;;26.58;5.43;;;28.40;52.70;;;;;;5050673;28;20532;-58
2023/05/19 04:26:44;;;;;;;40.53;5.60;;;28.40;52.20;;;;;;5051351;28;20522;-55
2023/05/19 04:29:12;;;;;;;32.50;6.53;;;28.30;52.30;;;;;;5049557;28;20142;-55
2023/05/19 04:31:39;;;;;;;28.73;7.82;;;28.30;52.00;;;;;;5050600;28;20053;-58
2023/05/19 04:34:09;;;;;;;42.35;12.90;;;28.30;52.00;;;;;;5049669;28;20622;-54
2023/05/19 04:36:36;;;;;;;45.05;15.40;;;28.20;51.40;;;;;;5049784;28;20095;-55
2023/05/19 04:39:06;;;;;;;44.13;16.75;;;28.20;51.20;;;;;;5049056;28;20367;-56
2023/05/19 04:41:33;;;;;;;55.30;16.48;;;28.10;50.80;;;;;;5050250;28;20058;-56
2023/05/19 04:44:00;;;;;;;42.97;14.35;;;28.10;50.50;;;;;;5051907;28;20050;-55
2023/05/19 04:46:29;;;;;;;34.40;11.43;;;28.00;50.60;;;;;;5049856;28;20055;-59
2023/05/19 04:48:55;;;;;;;24.45;7.80;;;28.00;50.70;;;;;;5053847;28;20090;-56
2023/05/19 04:51:27;;;;;;;25.50;6.68;;;28.00;50.40;;;;;;5052761;28;20065;-59
2023/05/19 04:53:56;;;;;;;20.65;4.63;;;28.00;50.70;;;;;;5051321;28;20101;-58
2023/05/19 04:56:23;;;;;;;15.68;3.42;;;27.90;50.80;;;;;;5050747;28;20078;-54
2023/05/19 04:58:49;;;;;;;20.27;3.95;;;27.90;50.90;;;;;;5048372;28;20101;-53
2023/05/19 05:01:16;;;;;;;15.68;3.28;;;27.90;51.20;;;;;;5049701;28;20064;-57
2023/05/19 05:03:42;;;;;;;17.80;3.25;;;27.90;51.70;;;;;;5054143;28;20051;-56
2023/05/19 05:06:10;;;;;;;11.27;3.00;;;27.80;51.80;;;;;;5050728;28;20579;-56
2023/05/19 05:08:38;;;;;;;13.85;3.05;;;27.70;52.00;;;;;;5050436;28;20085;-58
2023/05/19 05:11:05;;;;;;;20.77;4.18;;;27.70;52.40;;;;;;5050526;28;20050;-57
2023/05/19 05:13:32;;;;;;;22.77;4.18;;;27.60;52.70;;;;;;5055631;28;20088;-58
2023/05/19 05:15:59;;;;;;;16.48;3.80;;;27.60;53.30;;;;;;5054030;28;20062;-57
2023/05/19 05:18:26;;;;;;;11.88;3.40;;;27.60;53.80;;;;;;5052286;28;20100;-53
2023/05/19 05:20:53;;;;;;;14.95;4.05;;;27.50;54.30;;;;;;5054370;28;20078;-57
2023/05/19 05:23:20;;;;;;;21.05;3.83;;;27.50;54.90;;;;;;5052657;28;20555;-58
2023/05/19 05:25:47;;;;;;;22.10;3.90;;;27.40;55.00;;;;;;5046580;28;20468;-56
2023/05/19 05:28:13;;;;;;;25.48;4.15;;;27.40;55.00;;;;;;5050566;28;20067;-58
2023/05/19 05:30:40;;;;;;;19.00;4.10;;;27.30;54.70;;;;;;5050981;28;20521;-58
2023/05/19 05:33:06;;;;;;;18.55;4.50;;;27.30;54.80;;;;;;5049195;28;20070;-58
2023/05/19 05:35:33;;;;;;;17.05;5.10;;;27.30;54.70;;;;;;5048746;28;20107;-54
2023/05/19 05:38:00;;;;;;;49.08;9.38;;;27.40;55.40;;;;;;5048551;28;20622;-57
2023/05/19 05:40:26;;;;;;;36.15;10.00;;;27.20;55.70;;;;;;5048749;28;20147;-60
2023/05/19 05:42:57;;;;;;;1124.57;79.28;;;27.20;55.80;;;;;;5050217;28;20078;-59
2023/05/19 05:45:24;;;;;;;32.83;7.82;;;27.20;56.10;;;;;;5049973;28;20057;-58
2023/05/19 05:47:51;;;;;;;31.55;7.13;;;27.20;56.30;;;;;;5049725;28;20091;-61
2023/05/19 05:50:18;;;;;;;30.15;6.95;;;27.10;56.40;;;;;;5049151;28;20065;-59
2023/05/19 05:52:49;;;;;;;33.50;6.70;;;27.10;57.20;;;;;;5050579;28;20150;-58
2023/05/19 05:55:16;;;;;;;24.10;5.95;;;27.00;58.00;;;;;;5052385;28;20059;-54
2023/05/19 05:57:43;;;;;;;33.97;6.45;;;27.20;58.30;;;;;;5049072;28;20072;-57
2023/05/19 06:00:14;;;;;;;19.33;5.93;;;27.20;58.70;;;;;;5049980;28;20442;-56
2023/05/19 06:02:45;;;;;;;104.25;7.90;;;27.40;59.50;;;;;;5053013;28;20070;-55
2023/05/19 06:05:12;;;;;;;36.75;5.07;;;27.30;59.60;;;;;;5052223;28;20471;-53
2023/05/19 06:07:40;;;;;;;94.07;8.05;;;27.20;60.60;;;;;;5052736;28;20080;-55
2023/05/19 06:10:07;;;;;;;24.02;5.32;;;27.20;61.00;;;;;;5051881;28;20057;-57
2023/05/19 06:12:34;;;;;;;31.75;6.10;;;27.10;61.10;;;;;;5051878;28;20504;-55
2023/05/19 06:15:05;;;;;;;34.50;5.78;;;27.00;62.10;;;;;;5051344;28;20062;-57
2023/05/19 06:17:33;;;;;;;27.10;6.55;;;27.10;61.80;;;;;;5049809;28;20575;-59
2023/05/19 06:19:59;;;;;;;47.55;6.50;;;27.00;62.50;;;;;;5049321;28;20150;-56
2023/05/19 06:22:27;;;;;;;22.70;5.82;;;27.00;63.00;;;;;;5052572;28;20615;-57
2023/05/19 06:24:53;;;;;;;19.33;5.20;;;27.00;62.90;;;;;;5051623;28;20075;-56
2023/05/19 06:27:20;;;;;;;24.33;5.15;;;26.90;62.70;;;;;;5048696;28;20053;-56
2023/05/19 06:29:46;;;;;;;19.50;4.43;;;26.90;62.80;;;;;;5048931;28;20073;-56
2023/05/19 06:32:12;;;;;;;22.08;4.90;;;26.80;63.70;;;;;;5047970;28;20066;-55
2023/05/19 06:34:39;;;;;;;15.07;4.07;;;26.80;64.00;;;;;;5047386;28;20479;-55
2023/05/19 06:37:05;;;;;;;16.17;4.10;;;26.70;65.30;;;;;;5047159;28;20580;-58
2023/05/19 06:39:32;;;;;;;14.98;4.07;;;26.70;66.50;;;;;;5045599;28;20248;-57
2023/05/19 06:41:58;;;;;;;22.00;4.90;;;26.70;67.70;;;;;;5047647;28;20429;-55
2023/05/19 06:44:25;;;;;;;13.65;4.00;;;26.70;68.70;;;;;;5049068;28;20083;-59
2023/05/19 06:46:51;;;;;;;30.42;5.30;;;26.50;70.40;;;;;;5048849;28;20110;-54
2023/05/19 06:49:17;;;;;;;19.52;4.38;;;26.40;72.40;;;;;;5048228;28;20075;-56
2023/05/19 06:51:44;;;;;;;14.38;4.38;;;26.40;74.10;;;;;;5047001;28;20132;-57
2023/05/19 06:54:11;;;;;;;22.50;4.90;;;26.20;75.50;;;;;;5048640;28;20064;-55
2023/05/19 06:56:38;;;;;;;21.38;5.43;;;26.30;75.10;;;;;;5046576;28;20143;-56
2023/05/19 06:59:04;;;;;;;21.50;5.80;;;26.20;75.50;;;;;;5048775;28;20136;-55
2023/05/19 07:01:30;;;;;;;20.52;7.35;;;26.20;76.20;;;;;;5048218;28;20057;-57
2023/05/19 07:03:57;;;;;;;34.08;8.40;;;26.10;75.60;;;;;;5049034;28;20200;-57
2023/05/19 07:06:23;;;;;;;27.15;6.38;;;26.10;75.90;;;;;;5050189;28;20087;-59
2023/05/19 07:08:50;;;;;;;25.83;5.97;;;26.20;75.30;;;;;;5049151;28;20100;-57
2023/05/19 07:11:16;;;;;;;19.20;5.28;;;26.20;75.40;;;;;;5049575;28;20073;-62
2023/05/19 07:13:42;;;;;;;18.55;5.30;;;26.20;75.80;;;;;;5048636;28;20084;-60
2023/05/19 07:16:09;;;;;;;21.23;6.00;;;26.00;76.40;;;;;;5048776;28;20117;-56
2023/05/19 07:18:35;;;;;;;19.33;5.43;;;26.10;76.70;;;;;;5048328;28;20093;-55
2023/05/19 07:21:06;;;;;;;15.35;5.97;;;25.80;77.00;;;;;;5046942;28;20101;-57
2023/05/19 07:23:32;;;;;;;23.83;6.30;;;25.90;77.60;;;;;;5047658;28;20598;-55
2023/05/19 07:25:58;;;;;;;21.17;6.53;;;25.90;76.80;;;;;;5048181;28;20521;-56
2023/05/19 07:28:25;;;;;;;23.65;5.78;;;26.00;76.00;;;;;;5048301;28;20186;-54
2023/05/19 07:30:51;;;;;;;19.25;5.25;;;25.90;74.70;;;;;;5048498;28;20063;-56
2023/05/19 07:33:18;;;;;;;19.35;4.65;;;26.00;73.80;;;;;;5049222;28;20072;-53
2023/05/19 07:35:45;;;;;;;15.80;4.72;;;26.00;72.80;;;;;;5047981;28;20128;-58
2023/05/19 07:38:11;;;;;;;13.30;4.88;;;26.00;73.10;;;;;;5047612;28;20079;-57
2023/05/19 07:40:38;;;;;;;18.55;4.65;;;26.10;71.70;;;;;;5047571;28;20152;-55
2023/05/19 07:43:04;;;;;;;17.58;5.22;;;26.00;72.70;;;;;;5047124;28;20082;-57
2023/05/19 07:45:30;;;;;;;12.05;4.15;;;26.00;73.90;;;;;;5048131;28;20487;-59
2023/05/19 07:47:57;;;;;;;17.00;5.03;;;26.00;74.60;;;;;;5050964;28;20067;-57
2023/05/19 07:50:24;;;;;;;13.30;4.55;;;26.00;74.20;;;;;;5047533;28;20063;-57
2023/05/19 07:52:50;;;;;;;13.80;4.45;;;26.00;75.10;;;;;;5047890;28;20064;-58
2023/05/19 07:55:18;;;;;;;13.40;4.43;;;25.90;75.60;;;;;;5047754;28;20063;-57
2023/05/19 07:57:44;;;;;;;17.42;4.75;;;25.90;76.80;;;;;;5048193;28;20125;-57
2023/05/19 08:00:11;;;;;;;14.20;4.68;;;25.90;77.70;;;;;;5048006;28;20087;-59
2023/05/19 08:02:37;;;;;;;17.20;4.43;;;26.00;78.30;;;;;;5048218;28;20076;-55
2023/05/19 08:05:04;;;;;;;18.20;4.75;;;25.90;80.10;;;;;;5048036;28;20061;-55
2023/05/19 08:07:30;;;;;;;19.08;4.53;;;25.70;81.50;;;;;;5049157;28;20063;-54
2023/05/19 08:09:57;;;;;;;19.30;5.15;;;25.70;81.90;;;;;;5047260;28;20067;-59
2023/05/19 08:12:23;;;;;;;17.92;4.95;;;25.60;83.10;;;;;;5045777;28;20145;-55
2023/05/19 08:14:50;;;;;;;20.85;5.85;;;25.40;84.00;;;;;;5047537;28;20133;-56
2023/05/19 08:17:16;;;;;;;21.20;6.63;;;25.50;84.30;;;;;;5048117;28;20144;-55
2023/05/19 08:19:42;;;;;;;17.80;5.32;;;25.60;85.00;;;;;;5048362;28;20086;-56
2023/05/19 08:22:09;;;;;;;21.92;5.70;;;25.50;85.20;;;;;;5050053;28;20066;-59
2023/05/19 08:24:35;;;;;;;21.42;5.05;;;25.50;85.80;;;;;;5051375;28;20064;-55
2023/05/19 08:27:03;;;;;;;17.02;4.82;;;25.50;86.80;;;;;;5051162;28;20070;-54
2023/05/19 08:29:30;;;;;;;20.27;4.72;;;25.40;87.50;;;;;;5050859;28;20136;-55
2023/05/19 08:31:57;;;;;;;15.55;5.10;;;25.40;88.30;;;;;;5050898;28;20539;-55
2023/05/19 08:34:23;;;;;;;15.23;4.70;;;25.30;89.20;;;;;;5051497;28;20578;-56
2023/05/19 08:36:50;;;;;;;16.08;4.85;;;25.30;89.50;;;;;;5051594;28;20130;-56
2023/05/19 08:39:18;;;;;;;20.38;5.13;;;25.30;89.70;;;;;;5051387;28;20089;-57
2023/05/19 08:41:44;;;;;;;18.25;4.78;;;25.10;89.80;;;;;;5050721;28;20059;-57
2023/05/19 08:44:11;;;;;;;17.23;4.60;;;25.20;90.20;;;;;;5051129;28;20087;-58
2023/05/19 08:46:37;;;;;;;22.45;5.63;;;25.20;90.20;;;;;;5051222;28;20098;-58
2023/05/19 08:49:12;;;;;;;17.30;5.60;;;25.00;90.60;;;;;;5050270;28;20162;-57
2023/05/19 08:51:43;;;;;;;21.63;5.68;;;24.90;91.30;;;;;;5050772;28;20117;-57
2023/05/19 08:54:15;;;;;;;24.00;5.97;;;24.90;91.60;;;;;;5051101;28;20552;-55
2023/05/19 08:56:45;;;;;;;20.25;4.50;;;24.90;92.30;;;;;;5050606;28;20476;-61
2023/05/19 08:59:15;;;;;;;18.10;5.70;;;24.80;92.90;;;;;;5051391;28;20078;-55
2023/05/19 09:01:47;;;;;;;16.17;5.03;;;24.70;94.30;;;;;;5050573;28;20076;-54
2023/05/19 09:04:15;;;;;;;24.27;5.68;;;24.70;94.90;;;;;;5050789;28;20062;-55
2023/05/19 09:06:43;;;;;;;19.60;5.65;;;24.70;95.40;;;;;;5051596;28;20588;-54
2023/05/19 09:09:10;;;;;;;17.58;5.35;;;24.60;96.20;;;;;;5050593;28;20099;-56
2023/05/19 09:11:37;;;;;;;19.73;5.35;;;24.70;97.00;;;;;;5051590;28;20100;-56
2023/05/19 09:14:04;;;;;;;20.50;6.13;;;24.70;97.50;;;;;;5050858;28;20077;-55
2023/05/19 09:16:32;;;;;;;16.00;5.57;;;24.60;98.20;;;;;;5049183;28;20090;-56
2023/05/19 09:18:59;;;;;;;22.17;6.30;;;24.60;98.50;;;;;;5050195;28;20606;-56
2023/05/19 09:21:30;;;;;;;25.65;6.45;;;24.50;99.20;;;;;;5050318;28;20078;-57
2023/05/19 09:24:07;;;;;;;21.35;6.60;;;24.50;99.90;;;;;;5051149;28;20068;-55
2023/05/19 09:26:41;;;;;;;36.33;7.03;;;24.40;99.90;;;;;;5050182;28;20075;-58
2023/05/19 09:29:18;;;;;;;21.85;6.70;;;24.40;99.90;;;;;;5049813;28;20557;-55
2023/05/19 09:31:59;;;;;;;26.98;7.45;;;24.30;99.90;;;;;;5049591;28;20193;-54
2023/05/19 09:34:26;;;;;;;20.95;6.88;;;24.30;99.90;;;;;;5050340;28;20522;-55
2023/05/19 09:36:53;;;;;;;136.43;11.65;;;24.30;99.90;;;;;;5051581;28;20155;-56
2023/05/19 09:39:21;;;;;;;213.95;17.85;;;24.30;99.90;;;;;;5050362;28;20097;-56
2023/05/19 09:41:54;;;;;;;26.90;7.43;;;24.30;99.90;;;;;;5050316;28;20507;-56
2023/05/19 09:44:21;;;;;;;29.77;7.63;;;24.10;99.90;;;;;;5050636;28;20099;-55
2023/05/19 09:46:52;;;;;;;19.98;6.70;;;24.10;99.90;;;;;;5050528;28;20139;-53
2023/05/19 09:49:23;;;;;;;30.15;7.05;;;24.10;99.90;;;;;;5049192;28;20072;-59
2023/05/19 09:51:57;;;;;;;25.92;7.35;;;24.00;99.90;;;;;;5049362;28;20080;-56
2023/05/19 09:54:25;;;;;;;19.67;6.53;;;24.00;99.90;;;;;;5049519;28;20073;-55
2023/05/19 09:57:02;;;;;;;27.30;7.50;;;23.90;99.90;;;;;;5050143;28;20083;-57
2023/05/19 09:59:30;;;;;;;25.92;7.30;;;23.90;99.90;;;;;;5050385;28;20441;-55
2023/05/19 10:01:57;;;;;;;28.20;7.90;;;23.90;99.90;;;;;;5049079;28;20509;-54
2023/05/19 10:04:26;;;;;;;24.67;6.88;;;23.80;99.90;;;;;;5049154;28;20058;-55
2023/05/19 10:06:54;;;;;;;22.85;7.60;;;23.90;99.90;;;;;;5050439;28;20108;-56
2023/05/19 10:09:23;;;;;;;29.63;7.65;;;23.80;99.90;;;;;;5052000;28;20069;-53
2023/05/19 10:11:57;;;;;;;24.45;7.90;;;23.80;99.90;;;;;;5049335;28;20087;-57
2023/05/19 10:14:25;;;;;;;24.48;7.18;;;23.80;99.90;;;;;;5051442;28;20434;-55
2023/05/19 10:16:52;;;;;;;31.95;6.90;;;23.80;99.90;;;;;;5049202;28;20603;-56
2023/05/19 10:19:23;;;;;;;20.55;6.93;;;23.80;99.90;;;;;;5049903;28;20119;-56
2023/05/19 10:21:51;;;;;;;40.08;8.45;;;23.80;99.90;;;;;;5048546;28;20339;-57
2023/05/19 10:24:18;;;;;;;21.25;6.90;;;23.60;99.90;;;;;;5048152;28;20066;-57
2023/05/19 10:27:05;;;;;;;27.42;7.82;;;23.70;99.90;;;;;;5048651;28;20146;-56
2023/05/19 10:29:35;;;;;;;23.88;6.55;;;23.60;99.90;;;;;;5047931;28;20081;-55
2023/05/19 10:32:07;;;;;;;28.33;8.05;;;23.50;99.90;;;;;;5049596;28;20069;-56
2023/05/19 10:35:09;;;;;;;28.23;7.22;;;23.60;99.90;;;;;;5051819;28;20653;-55
2023/05/19 10:37:58;;;;;;;22.95;7.35;;;23.60;99.90;;;;;;5049213;28;20598;-55
2023/05/19 10:40:28;;;;;;;24.13;7.75;;;23.60;99.90;;;;;;5048923;28;20064;-55
2023/05/19 10:43:06;;;;;;;29.75;8.13;;;23.60;99.90;;;;;;5049222;28;20067;-56
2023/05/19 10:45:41;;;;;;;26.33;6.88;;;23.60;99.90;;;;;;5047537;28;20073;-60
2023/05/19 10:48:13;;;;;;;25.58;7.53;;;23.60;99.90;;;;;;5048535;28;20455;-53
2023/05/19 10:50:42;;;;;;;30.83;7.43;;;23.50;99.90;;;;;;5049550;28;20544;-54
2023/05/19 10:53:16;;;;;;;26.13;7.72;;;23.50;99.90;;;;;;5048874;28;20066;-55
2023/05/19 10:55:55;;;;;;;25.85;7.75;;;23.40;99.90;;;;;;5049970;28;20092;-56
2023/05/19 10:58:50;;;;;;;29.58;7.90;;;23.50;99.90;;;;;;5048395;28;20094;-54
2023/05/19 11:01:19;;;;;;;23.85;7.40;;;23.50;99.90;;;;;;5046979;28;20162;-55
2023/05/19 11:03:55;;;;;;;24.77;7.45;;;23.50;99.90;;;;;;5049052;28;20100;-56
2023/05/19 11:06:34;;;;;;;28.88;8.55;;;23.50;99.90;;;;;;5048761;28;20066;-60
2023/05/19 11:09:12;;;;;;;22.90;7.22;;;23.50;99.90;;;;;;5049311;28;20084;-56
2023/05/19 11:11:49;;;;;;;26.48;7.35;;;23.40;99.90;;;;;;5048843;28;20069;-54
2023/05/19 11:14:18;;;;;;;26.38;7.95;;;23.40;99.90;;;;;;5048246;28;20076;-56
2023/05/19 11:16:49;;;;;;;25.20;7.18;;;23.40;99.90;;;;;;5047928;28;20074;-55
2023/05/19 11:19:18;;;;;;;27.48;7.40;;;23.40;99.90;;;;;;5048617;28;20094;-56
2023/05/19 11:21:53;;;;;;;21.77;6.97;;;23.40;99.90;;;;;;5048837;28;20065;-56
2023/05/19 11:24:46;;;;;;;32.53;6.68;;;23.40;99.90;;;;;;5048920;28;20115;-56
2023/05/19 11:27:29;;;;;;;23.25;7.05;;;23.40;99.90;;;;;;5047617;28;20080;-56
2023/05/19 11:30:04;;;;;;;23.92;7.18;;;23.40;99.90;;;;;;5047700;28;20071;-54
2023/05/19 11:32:37;;;;;;;21.88;7.07;;;23.50;99.90;;;;;;5048026;28;20081;-58
2023/05/19 11:35:04;;;;;;;18.73;6.30;;;23.50;99.90;;;;;;5047911;28;20078;-54
2023/05/19 11:37:33;;;;;;;24.75;6.22;;;23.50;99.90;;;;;;5047488;28;20076;-55
2023/05/19 11:40:06;;;;;;;22.92;7.00;;;23.50;99.90;;;;;;5048021;28;21467;-56
2023/05/19 11:42:35;;;;;;;25.48;7.65;;;23.50;99.90;;;;;;5048173;28;20109;-56
2023/05/19 11:45:05;;;;;;;21.27;6.53;;;23.50;99.90;;;;;;5047477;28;20094;-54
2023/05/19 11:47:32;;;;;;;21.77;7.80;;;23.50;99.90;;;;;;5047744;28;20123;-53
2023/05/19 11:49:59;;;;;;;21.08;6.80;;;23.50;99.90;;;;;;5046686;28;20203;-57
2023/05/19 11:52:26;;;;;;;21.70;6.55;;;23.40;99.90;;;;;;5048136;28;20096;-55
2023/05/19 11:54:52;;;;;;;24.50;7.20;;;23.40;99.90;;;;;;5049441;28;20084;-56
2023/05/19 11:57:19;;;;;;;29.48;7.95;;;23.40;99.90;;;;;;5052181;28;20090;-56
2023/05/19 11:59:48;;;;;;;24.98;7.20;;;23.40;99.90;;;;;;5051119;28;20118;-58
2023/05/19 12:02:26;;;;;;;22.73;7.28;;;23.40;99.90;;;;;;5051451;28;20134;-57
2023/05/19 12:04:53;;;;;;;22.38;6.25;;;23.50;99.90;;;;;;5053299;28;20066;-56
2023/05/19 12:07:22;;;;;;;26.83;7.00;;;23.50;99.90;;;;;;5052568;28;20069;-54
2023/05/19 12:09:50;;;;;;;22.30;7.20;;;23.60;99.90;;;;;;5051682;28;20114;-59
2023/05/19 12:12:20;;;;;;;24.48;8.13;;;23.60;99.90;;;;;;5052086;28;20156;-56
2023/05/19 12:14:51;;;;;;;23.45;7.18;;;23.50;99.90;;;;;;5051509;28;20070;-57
2023/05/19 12:17:22;;;;;;;30.05;7.45;;;23.50;99.90;;;;;;5052919;28;20111;-53
2023/05/19 12:19:50;;;;;;;29.60;8.23;;;23.60;99.90;;;;;;5052251;28;20573;-55
2023/05/19 12:22:18;;;;;;;31.55;8.55;;;23.50;99.90;;;;;;5051286;28;20070;-53
2023/05/19 12:24:45;;;;;;;26.40;8.15;;;23.60;99.90;;;;;;5052449;28;20431;-56
2023/05/19 12:27:21;;;;;;;25.27;7.72;;;23.60;99.90;;;;;;5050685;28;20091;-54
2023/05/19 12:29:51;;;;;;;;;;;23.50;99.90;;;;;;5050991;28;20550;-54
2023/05/19 12:32:22;;;;;;;23.40;6.90;;;23.50;99.90;;;;;;5052783;28;19961;-54
2023/05/19 12:34:50;;;;;;;19.15;7.20;;;23.50;99.90;;;;;;5051680;28;20069;-56
2023/05/19 12:37:16;;;;;;;19.95;7.25;;;23.50;99.90;;;;;;5051723;28;20073;-57
2023/05/19 12:39:43;;;;;;;20.42;6.95;;;23.50;99.90;;;;;;5051143;28;20086;-54
2023/05/19 12:42:11;;;;;;;30.35;6.68;;;23.50;99.90;;;;;;5050989;28;20405;-55
2023/05/19 12:44:51;;;;;;;30.30;7.25;;;23.50;99.90;;;;;;5050963;28;20112;-55